createdAt,value
2022-10-05T00:01:43.677Z,10.47
2022-10-05T00:04:15.420Z,9.83
2022-10-05T00:06:44.418Z,9.80
2022-10-05T00:09:16.192Z,9.33
2022-10-05T00:11:44.586Z,8.60
2022-10-05T00:14:16.614Z,8.07
2022-10-05T00:16:46.190Z,6.63
2022-10-05T00:19:19.543Z,7.00
2022-10-05T00:21:47.361Z,7.03
2022-10-05T00:24:17.128Z,6.93
2022-10-05T00:26:45.157Z,7.83
2022-10-05T00:29:18.330Z,8.70
2022-10-05T00:31:47.878Z,8.93
2022-10-05T00:34:15.707Z,9.13
2022-10-05T00:36:45.248Z,9.47
2022-10-05T00:39:13.153Z,10.07
2022-10-05T00:41:50.272Z,9.13
2022-10-05T00:44:26.845Z,10.70
2022-10-05T00:46:58.355Z,9.10
2022-10-05T00:49:32.511Z,8.50
2022-10-05T00:52:07.445Z,10.20
2022-10-05T00:54:38.564Z,9.83
2022-10-05T00:57:12.671Z,9.93
2022-10-05T00:59:45.996Z,9.70
2022-10-05T01:02:18.768Z,9.87
2022-10-05T01:04:49.299Z,9.40
2022-10-05T01:07:19.415Z,10.87
2022-10-05T01:09:53.831Z,10.10
2022-10-05T01:12:25.173Z,10.23
2022-10-05T01:14:54.944Z,10.07
2022-10-05T01:17:27.465Z,10.93
2022-10-05T01:20:09.100Z,10.73
2022-10-05T01:22:43.106Z,10.40
2022-10-05T01:25:17.058Z,10.50
2022-10-05T01:27:52.061Z,10.93
2022-10-05T01:30:21.493Z,10.50
2022-10-05T01:32:51.327Z,10.23
2022-10-05T01:35:36.179Z,10.10
2022-10-05T01:38:10.181Z,10.50
2022-10-05T01:40:41.659Z,10.43
2022-10-05T01:43:14.990Z,10.50
2022-10-05T01:45:47.317Z,10.67
2022-10-05T01:48:18.838Z,10.73
2022-10-05T01:50:53.595Z,12.57
2022-10-05T01:53:26.074Z,11.93
2022-10-05T01:55:56.079Z,12.23
2022-10-05T01:58:29.526Z,12.07
2022-10-05T02:01:02.038Z,12.07
2022-10-05T02:03:32.389Z,11.87
2022-10-05T02:06:02.059Z,13.13
2022-10-05T02:08:33.814Z,13.10
2022-10-05T02:11:03.693Z,12.07
2022-10-05T02:13:40.787Z,12.70
2022-10-05T02:16:10.363Z,11.97
2022-10-05T02:18:42.617Z,12.03
2022-10-05T02:21:10.658Z,10.90
2022-10-05T02:23:40.737Z,12.10
2022-10-05T02:26:10.351Z,12.63
2022-10-05T02:28:41.449Z,10.93
2022-10-05T02:31:12.246Z,12.00
2022-10-05T02:33:40.875Z,11.57
2022-10-05T02:36:12.545Z,12.70
2022-10-05T02:38:48.692Z,13.00
2022-10-05T02:41:20.352Z,12.37
2022-10-05T02:43:54.489Z,11.73
2022-10-05T02:46:28.906Z,12.67
2022-10-05T02:49:01.955Z,13.20
2022-10-05T02:51:35.161Z,12.50
2022-10-05T02:54:07.771Z,13.00
2022-10-05T02:56:41.287Z,13.37
2022-10-05T02:59:15.183Z,13.50
2022-10-05T03:01:47.913Z,13.83
2022-10-05T03:04:21.360Z,13.83
2022-10-05T03:06:51.224Z,13.60
2022-10-05T03:09:20.570Z,12.53
2022-10-05T03:11:52.600Z,12.63
2022-10-05T03:14:26.364Z,12.80
2022-10-05T03:16:59.011Z,12.20
2022-10-05T03:19:44.284Z,11.27
2022-10-05T03:22:19.139Z,11.90
2022-10-05T03:24:55.184Z,12.07
2022-10-05T03:27:29.850Z,12.50
2022-10-05T03:30:03.545Z,12.13
2022-10-05T03:32:35.350Z,12.07
2022-10-05T03:35:07.245Z,12.20
2022-10-05T03:37:47.712Z,11.07
2022-10-05T03:40:23.403Z,11.90
2022-10-05T03:42:59.216Z,10.43
2022-10-05T03:45:31.762Z,13.27
2022-10-05T03:48:04.330Z,12.37
2022-10-05T03:50:38.391Z,11.23
2022-10-05T03:53:07.665Z,12.97
2022-10-05T03:55:38.731Z,12.80
2022-10-05T03:58:08.550Z,12.60
2022-10-05T04:00:38.214Z,11.93
2022-10-05T04:03:09.083Z,11.80
2022-10-05T04:05:39.308Z,12.37
2022-10-05T04:08:10.164Z,11.57
2022-10-05T04:10:41.178Z,10.30
2022-10-05T04:13:12.709Z,11.70
2022-10-05T04:15:50.603Z,11.53
2022-10-05T04:18:22.065Z,12.70
2022-10-05T04:20:52.561Z,13.07
2022-10-05T04:23:23.778Z,13.17
2022-10-05T04:25:53.073Z,13.10
2022-10-05T04:28:27.005Z,12.57
2022-10-05T04:31:02.723Z,12.47
2022-10-05T04:33:30.596Z,12.53
2022-10-05T04:36:07.016Z,11.70
2022-10-05T04:38:40.633Z,12.33
2022-10-05T04:41:20.647Z,13.03
2022-10-05T04:43:54.720Z,12.13
2022-10-05T04:46:32.337Z,12.50
2022-10-05T04:49:09.358Z,12.03
2022-10-05T04:51:39.174Z,13.57
2022-10-05T04:54:12.886Z,14.60
2022-10-05T04:56:43.781Z,12.97
2022-10-05T04:59:23.793Z,12.00
2022-10-05T05:02:00.922Z,13.63
2022-10-05T05:04:34.908Z,12.83
2022-10-05T05:07:08.443Z,13.93
2022-10-05T05:09:54.002Z,12.50
2022-10-05T05:12:27.467Z,12.87
2022-10-05T05:15:07.306Z,11.60
2022-10-05T05:17:48.138Z,11.93
2022-10-05T05:20:21.676Z,10.40
2022-10-05T05:22:51.933Z,10.97
2022-10-05T05:25:35.960Z,8.57
2022-10-05T05:28:07.418Z,8.60
2022-10-05T05:30:40.880Z,7.07
2022-10-05T05:33:16.169Z,8.70
2022-10-05T05:36:08.972Z,8.33
2022-10-05T05:38:40.137Z,9.03
2022-10-05T05:41:10.440Z,8.23
2022-10-05T05:43:47.250Z,7.90
2022-10-05T05:46:20.355Z,8.17
2022-10-05T05:48:50.310Z,8.23
2022-10-05T05:51:22.065Z,9.47
2022-10-05T05:53:51.859Z,9.70
2022-10-05T05:56:22.592Z,7.30
2022-10-05T05:58:53.523Z,9.23
2022-10-05T06:01:33.299Z,8.43
2022-10-05T06:04:04.841Z,10.03
2022-10-05T06:06:33.417Z,8.37
2022-10-05T06:09:03.260Z,10.43
2022-10-05T06:11:32.322Z,12.33
2022-10-05T06:14:02.008Z,11.37
2022-10-05T06:16:32.839Z,12.53
2022-10-05T06:19:03.707Z,11.23
2022-10-05T06:21:35.719Z,10.70
2022-10-05T06:24:05.938Z,12.33
2022-10-05T06:26:46.215Z,12.00
2022-10-05T06:29:18.548Z,12.00
2022-10-05T06:32:04.184Z,10.97
2022-10-05T06:34:39.637Z,10.90
2022-10-05T06:37:12.370Z,12.13
2022-10-05T06:39:49.750Z,11.43
2022-10-05T06:42:36.022Z,11.20
2022-10-05T06:45:09.266Z,9.93
2022-10-05T06:47:42.694Z,10.80
2022-10-05T06:50:15.059Z,9.47
2022-10-05T06:52:52.240Z,10.57
2022-10-05T06:55:24.885Z,11.00
2022-10-05T06:58:02.987Z,10.53
2022-10-05T07:00:36.276Z,10.13
2022-10-05T07:03:06.603Z,10.73
2022-10-05T07:05:47.599Z,9.97
2022-10-05T07:08:20.280Z,8.97
2022-10-05T07:10:54.848Z,10.80
2022-10-05T07:13:34.775Z,10.33
2022-10-05T07:16:06.677Z,9.20
2022-10-05T07:18:58.440Z,10.30
2022-10-05T07:21:31.987Z,10.07
2022-10-05T07:24:04.354Z,13.83
2022-10-05T07:26:34.883Z,10.77
2022-10-05T07:29:17.514Z,11.20
2022-10-05T07:31:48.744Z,10.90
2022-10-05T07:34:20.125Z,9.93
2022-10-05T07:37:09.475Z,10.27
2022-10-05T07:39:59.801Z,9.60
2022-10-05T07:42:37.519Z,10.00
2022-10-05T07:45:16.140Z,10.93
2022-10-05T07:47:47.065Z,10.83
2022-10-05T07:50:20.363Z,9.43
2022-10-05T07:52:50.351Z,10.67
2022-10-05T07:55:22.270Z,9.70
2022-10-05T07:57:54.759Z,9.03
2022-10-05T08:00:24.157Z,10.00
2022-10-05T08:02:54.628Z,9.77
2022-10-05T08:05:25.010Z,9.63
2022-10-05T08:07:56.080Z,10.17
2022-10-05T08:10:29.005Z,10.33
2022-10-05T08:13:01.594Z,10.60
2022-10-05T08:15:34.537Z,10.80
2022-10-05T08:18:03.789Z,10.33
2022-10-05T08:20:42.856Z,9.87
2022-10-05T08:23:16.904Z,9.37
2022-10-05T08:25:52.946Z,9.63
2022-10-05T08:28:24.488Z,9.73
2022-10-05T08:30:58.255Z,9.60
2022-10-05T08:33:32.325Z,9.90
2022-10-05T08:36:05.892Z,8.63
2022-10-05T08:38:34.735Z,6.70
2022-10-05T08:41:32.543Z,8.53
2022-10-05T08:44:30.575Z,6.00
2022-10-05T08:47:08.652Z,6.50
2022-10-05T08:49:54.977Z,6.33
2022-10-05T08:52:25.820Z,4.67
2022-10-05T08:55:08.666Z,3.70
2022-10-05T08:57:54.283Z,3.33
2022-10-05T09:00:24.507Z,3.67
2022-10-05T09:03:08.440Z,3.20
2022-10-05T09:05:46.672Z,3.40
2022-10-05T09:08:32.023Z,2.60
2022-10-05T09:11:02.657Z,3.10
2022-10-05T09:13:44.537Z,2.80
2022-10-05T09:16:29.467Z,2.70
2022-10-05T09:19:18.408Z,2.87
2022-10-05T09:21:54.501Z,2.13
2022-10-05T09:24:28.471Z,2.33
2022-10-05T09:27:05.357Z,1.87
2022-10-05T09:30:00.982Z,2.93
2022-10-05T09:32:46.716Z,3.20
2022-10-05T09:35:27.471Z,3.07
2022-10-05T09:38:12.892Z,3.87
2022-10-05T09:40:54.373Z,4.03
2022-10-05T09:43:43.348Z,3.00
2022-10-05T09:46:25.961Z,2.47
2022-10-05T09:49:08.630Z,2.30
2022-10-05T09:52:00.359Z,1.50
2022-10-05T09:54:39.001Z,1.90
2022-10-05T09:57:30.649Z,1.67
2022-10-05T10:00:13.725Z,1.70
2022-10-05T10:03:09.105Z,1.30
2022-10-05T10:05:54.984Z,1.90
2022-10-05T10:08:34.536Z,1.70
2022-10-05T10:11:22.580Z,1.40
2022-10-05T10:14:02.388Z,1.30
2022-10-05T10:16:34.338Z,1.70
2022-10-05T10:19:07.980Z,1.67
2022-10-05T10:21:49.971Z,1.47
2022-10-05T10:24:29.961Z,1.20
2022-10-05T10:27:17.086Z,1.47
2022-10-05T10:29:52.315Z,1.70
2022-10-05T10:32:34.885Z,1.77
2022-10-05T10:35:09.416Z,1.50
2022-10-05T10:38:01.199Z,1.80
2022-10-05T10:40:38.017Z,1.63
2022-10-05T10:43:29.656Z,1.90
2022-10-05T10:46:01.048Z,1.97
2022-10-05T10:48:48.489Z,2.00
2022-10-05T10:51:19.955Z,1.60
2022-10-05T10:54:06.720Z,2.40
2022-10-05T10:56:52.279Z,1.67
2022-10-05T10:59:50.433Z,1.57
2022-10-05T11:02:33.110Z,1.50
2022-10-05T11:05:33.330Z,1.00
2022-10-05T11:08:22.126Z,1.70
2022-10-05T11:11:01.201Z,1.33
2022-10-05T11:13:42.817Z,1.20
2022-10-05T11:16:31.233Z,1.10
2022-10-05T11:19:08.793Z,1.30
2022-10-05T11:21:47.235Z,1.30
2022-10-05T11:24:38.741Z,1.00
2022-10-05T11:27:25.438Z,0.90
2022-10-05T11:30:11.081Z,1.37
2022-10-05T11:32:54.249Z,1.40
2022-10-05T11:35:34.277Z,1.23
2022-10-05T11:38:09.879Z,1.30
2022-10-05T11:41:08.857Z,1.40
2022-10-05T11:43:54.383Z,1.80
2022-10-05T11:46:25.915Z,2.33
2022-10-05T11:49:03.900Z,1.43
2022-10-05T11:51:38.960Z,1.60
2022-10-05T11:54:46.604Z,1.40
2022-10-05T11:57:25.622Z,1.23
2022-10-05T11:59:56.625Z,1.10
2022-10-05T12:02:38.918Z,1.30
2022-10-05T12:05:16.660Z,1.17
2022-10-05T12:07:53.327Z,1.10
2022-10-05T12:10:25.291Z,1.03
2022-10-05T12:13:00.705Z,1.07
2022-10-05T12:15:31.295Z,1.07
2022-10-05T12:18:04.778Z,1.00
2022-10-05T12:20:39.754Z,1.00
2022-10-05T12:23:11.655Z,1.17
2022-10-05T12:25:41.835Z,1.20
2022-10-05T12:28:12.953Z,1.13
2022-10-05T12:30:58.367Z,1.03
2022-10-05T12:33:29.311Z,1.10
2022-10-05T12:36:03.068Z,1.20
2022-10-05T12:38:37.118Z,1.00
2022-10-05T12:41:10.424Z,1.20
2022-10-05T12:43:43.063Z,1.30
2022-10-05T12:46:18.699Z,1.47
2022-10-05T12:48:56.293Z,1.43
2022-10-05T12:51:29.202Z,1.50
2022-10-05T12:53:59.350Z,1.03
2022-10-05T12:56:35.978Z,1.37
2022-10-05T12:59:06.189Z,1.37
2022-10-05T13:01:38.224Z,1.10
2022-10-05T13:04:15.074Z,1.03
2022-10-05T13:06:49.585Z,1.70
2022-10-05T13:09:19.894Z,1.37
2022-10-05T13:11:50.297Z,1.13
2022-10-05T13:14:26.435Z,1.37
2022-10-05T13:16:59.717Z,1.40
2022-10-05T13:19:36.502Z,1.63
2022-10-05T13:22:37.172Z,1.40
2022-10-05T13:25:19.935Z,1.20
2022-10-05T13:27:56.521Z,1.33
2022-10-05T13:30:27.260Z,1.27
2022-10-05T13:32:58.044Z,1.23
2022-10-05T13:35:31.634Z,1.20
2022-10-05T13:38:04.549Z,1.20
2022-10-05T13:40:35.508Z,1.30
2022-10-05T13:43:11.395Z,1.67
2022-10-05T13:45:46.336Z,1.13
2022-10-05T13:48:21.551Z,1.20
2022-10-05T13:50:54.392Z,0.97
2022-10-05T13:53:25.993Z,1.53
2022-10-05T13:55:58.466Z,1.07
2022-10-05T13:58:33.870Z,0.97
2022-10-05T14:01:02.912Z,0.90
2022-10-05T14:03:36.175Z,1.30
2022-10-05T14:06:06.987Z,1.00
2022-10-05T14:08:38.531Z,1.07
2022-10-05T14:11:22.030Z,1.30
2022-10-05T14:13:53.256Z,1.93
2022-10-05T14:16:22.693Z,1.17
2022-10-05T14:18:54.749Z,1.40
2022-10-05T14:21:24.887Z,1.10
2022-10-05T14:23:52.970Z,0.93
2022-10-05T14:26:35.629Z,1.13
2022-10-05T14:29:16.966Z,1.30
2022-10-05T14:31:49.383Z,1.40
2022-10-05T14:34:29.325Z,1.30
2022-10-05T14:36:58.204Z,1.50
2022-10-05T14:39:26.412Z,1.57
2022-10-05T14:41:54.234Z,1.67
2022-10-05T14:44:30.297Z,1.47
2022-10-05T14:47:04.129Z,1.53
2022-10-05T14:49:36.301Z,1.40
2022-10-05T14:52:23.467Z,1.50
2022-10-05T14:54:59.761Z,1.20
2022-10-05T14:57:37.631Z,1.20
2022-10-05T15:00:12.300Z,1.10
2022-10-05T15:02:55.672Z,1.07
2022-10-05T15:05:27.026Z,0.90
2022-10-05T15:07:58.992Z,1.20
2022-10-05T15:10:32.764Z,0.80
2022-10-05T15:13:10.634Z,1.10
2022-10-05T15:15:46.372Z,1.30
2022-10-05T15:18:18.269Z,1.30
2022-10-05T15:20:53.759Z,1.77
2022-10-05T15:23:25.065Z,1.07
2022-10-05T15:25:56.471Z,1.10
2022-10-05T15:28:30.472Z,1.10
2022-10-05T15:31:02.993Z,1.10
2022-10-05T15:33:32.700Z,1.60
2022-10-05T15:36:06.500Z,1.10
2022-10-05T15:38:38.392Z,1.83
2022-10-05T15:41:14.927Z,2.40
2022-10-05T15:43:51.037Z,1.40
2022-10-05T15:46:24.604Z,1.43
2022-10-05T15:49:00.704Z,1.37
2022-10-05T15:51:36.532Z,1.00
2022-10-05T15:54:33.372Z,1.20
2022-10-05T15:57:06.450Z,1.37
2022-10-05T15:59:38.734Z,1.20
2022-10-05T16:02:17.165Z,1.40
2022-10-05T16:04:48.943Z,1.07
2022-10-05T16:07:38.191Z,1.40
2022-10-05T16:10:15.233Z,1.10
2022-10-05T16:12:47.438Z,1.10
2022-10-05T16:15:28.490Z,2.07
2022-10-05T16:18:27.186Z,1.80
2022-10-05T16:21:00.121Z,2.40
2022-10-05T16:23:33.282Z,2.90
2022-10-05T16:26:09.369Z,2.87
2022-10-05T16:28:41.160Z,2.87
2022-10-05T16:31:15.176Z,2.33
2022-10-05T16:33:55.386Z,2.57
2022-10-05T16:36:27.819Z,2.27
2022-10-05T16:39:00.102Z,2.50
2022-10-05T16:41:33.076Z,3.43
2022-10-05T16:44:03.897Z,3.10
2022-10-05T16:46:37.005Z,3.30
2022-10-05T16:49:10.938Z,2.60
2022-10-05T16:51:43.847Z,3.17
2022-10-05T16:54:18.554Z,2.70
2022-10-05T16:56:49.074Z,3.20
2022-10-05T16:59:34.668Z,3.43
2022-10-05T17:02:08.282Z,3.53
2022-10-05T17:04:45.522Z,3.80
2022-10-05T17:07:22.590Z,3.50
2022-10-05T17:10:05.218Z,2.90
2022-10-05T17:12:41.020Z,2.90
2022-10-05T17:15:15.450Z,3.63
2022-10-05T17:17:54.177Z,4.43
2022-10-05T17:20:30.851Z,2.10
2022-10-05T17:23:00.561Z,2.67
2022-10-05T17:25:35.513Z,2.63
2022-10-05T17:28:17.844Z,2.60
2022-10-05T17:30:51.576Z,3.43
2022-10-05T17:33:21.941Z,3.43
2022-10-05T17:35:56.929Z,3.40
2022-10-05T17:38:28.372Z,3.60
2022-10-05T17:41:15.129Z,3.50
2022-10-05T17:44:04.505Z,3.37
2022-10-05T17:46:40.248Z,3.77
2022-10-05T17:49:18.236Z,4.00
2022-10-05T17:52:19.032Z,4.13
2022-10-05T17:55:21.028Z,4.63
2022-10-05T17:57:49.082Z,4.07
2022-10-05T18:00:32.009Z,4.53
2022-10-05T18:03:00.316Z,4.13
2022-10-05T18:05:28.847Z,4.47
2022-10-05T18:08:17.791Z,4.33
2022-10-05T18:11:00.447Z,3.57
2022-10-05T18:13:36.659Z,4.07
2022-10-05T18:16:05.203Z,4.80
2022-10-05T18:18:34.628Z,3.80
2022-10-05T18:21:30.035Z,3.80
2022-10-05T18:24:18.758Z,3.23
2022-10-05T18:26:52.373Z,3.80
2022-10-05T18:29:41.773Z,3.73
2022-10-05T18:32:13.696Z,3.23
2022-10-05T18:34:46.785Z,3.33
2022-10-05T18:37:27.321Z,3.20
2022-10-05T18:40:02.059Z,3.67
2022-10-05T18:42:34.593Z,3.73
2022-10-05T18:45:09.477Z,3.63
2022-10-05T18:47:41.264Z,3.23
2022-10-05T18:50:25.802Z,3.50
2022-10-05T18:53:04.084Z,2.70
2022-10-05T18:55:34.504Z,3.63
2022-10-05T18:58:17.742Z,2.70
2022-10-05T19:01:00.188Z,3.20
2022-10-05T19:03:30.643Z,2.60
2022-10-05T19:06:04.424Z,3.07
2022-10-05T19:08:36.213Z,3.27
2022-10-05T19:11:11.806Z,3.47
2022-10-05T19:13:44.006Z,3.20
2022-10-05T19:16:22.565Z,3.10
2022-10-05T19:19:05.367Z,3.00
2022-10-05T19:21:38.554Z,3.33
2022-10-05T19:24:17.399Z,2.67
2022-10-05T19:26:53.730Z,3.23
2022-10-05T19:29:27.190Z,2.40
2022-10-05T19:32:00.937Z,2.20
2022-10-05T19:34:34.649Z,3.07
2022-10-05T19:37:09.366Z,2.10
2022-10-05T19:39:40.376Z,2.20
2022-10-05T19:42:15.544Z,2.30
2022-10-05T19:44:53.944Z,2.50
2022-10-05T19:47:30.127Z,2.10
2022-10-05T19:50:19.936Z,2.60
2022-10-05T19:52:50.735Z,2.23
2022-10-05T19:55:26.548Z,3.10
2022-10-05T19:57:55.757Z,2.30
2022-10-05T20:00:25.172Z,2.10
2022-10-05T20:03:09.119Z,2.37
2022-10-05T20:05:36.942Z,1.80
2022-10-05T20:08:06.008Z,2.03
2022-10-05T20:10:34.397Z,1.97
2022-10-05T20:13:03.068Z,2.20
2022-10-05T20:15:49.322Z,1.80
2022-10-05T20:18:54.277Z,2.33
2022-10-05T20:21:42.677Z,2.60
2022-10-05T20:24:11.451Z,3.13
2022-10-05T20:27:00.998Z,2.50
2022-10-05T20:29:30.015Z,3.00
2022-10-05T20:31:58.537Z,2.87
2022-10-05T20:34:27.707Z,3.00
2022-10-05T20:36:55.589Z,2.97
2022-10-05T20:39:23.912Z,3.20
2022-10-05T20:41:52.228Z,3.50
2022-10-05T20:44:20.260Z,3.27
2022-10-05T20:46:48.635Z,3.60
2022-10-05T20:49:16.798Z,3.00
2022-10-05T20:51:46.199Z,3.57
2022-10-05T20:54:17.696Z,3.53
2022-10-05T20:56:46.130Z,3.37
2022-10-05T20:59:14.044Z,3.00
2022-10-05T21:01:45.529Z,3.20
2022-10-05T21:04:13.614Z,3.80
2022-10-05T21:06:41.891Z,4.17
2022-10-05T21:09:11.761Z,4.43
2022-10-05T21:11:40.409Z,3.47
2022-10-05T21:14:09.190Z,3.80
2022-10-05T21:16:38.426Z,2.87
2022-10-05T21:19:08.933Z,3.00
2022-10-05T21:21:37.398Z,3.20
2022-10-05T21:24:06.262Z,3.07
2022-10-05T21:26:37.095Z,2.97
2022-10-05T21:29:12.124Z,3.07
2022-10-05T21:31:40.901Z,2.70
2022-10-05T21:34:09.032Z,2.73
2022-10-05T21:36:36.843Z,2.13
2022-10-05T21:39:04.803Z,2.37
2022-10-05T21:41:32.601Z,2.60
2022-10-05T21:44:02.130Z,2.53
2022-10-05T21:46:30.212Z,2.60
2022-10-05T21:48:59.240Z,2.43
2022-10-05T21:51:29.958Z,2.30
2022-10-05T21:53:59.538Z,2.47
2022-10-05T21:56:30.548Z,1.83
2022-10-05T21:58:58.801Z,1.80
2022-10-05T22:01:29.280Z,2.00
2022-10-05T22:03:58.387Z,2.30
2022-10-05T22:06:26.555Z,1.97
2022-10-05T22:08:54.515Z,1.80
2022-10-05T22:11:25.517Z,1.80
2022-10-05T22:13:54.357Z,1.67
2022-10-05T22:16:22.947Z,1.83
2022-10-05T22:18:53.750Z,2.03
2022-10-05T22:21:22.955Z,2.07
2022-10-05T22:23:50.979Z,1.70
2022-10-05T22:26:21.157Z,1.80
2022-10-05T22:28:49.713Z,2.40
2022-10-05T22:31:19.342Z,1.70
2022-10-05T22:33:47.474Z,1.90
2022-10-05T22:36:17.452Z,1.63
2022-10-05T22:38:46.738Z,2.27
2022-10-05T22:41:15.420Z,1.70
2022-10-05T22:43:43.263Z,1.80
2022-10-05T22:46:14.052Z,1.70
2022-10-05T22:48:41.832Z,2.33
2022-10-05T22:51:09.889Z,1.70
2022-10-05T22:53:39.150Z,1.70
2022-10-05T22:56:08.061Z,1.77
2022-10-05T22:58:36.034Z,1.70
2022-10-05T23:01:04.952Z,1.83
2022-10-05T23:03:33.095Z,2.00
2022-10-05T23:06:03.242Z,1.60
2022-10-05T23:08:32.855Z,1.80
2022-10-05T23:11:05.661Z,1.57
2022-10-05T23:13:35.264Z,1.60
2022-10-05T23:16:07.018Z,1.90
2022-10-05T23:18:35.399Z,1.97
2022-10-05T23:21:03.461Z,1.50
2022-10-05T23:23:31.700Z,2.07
2022-10-05T23:26:03.194Z,1.70
2022-10-05T23:28:33.038Z,2.00
2022-10-05T23:31:01.847Z,1.63
2022-10-05T23:33:31.820Z,1.87
2022-10-05T23:36:00.208Z,2.20
2022-10-05T23:38:29.072Z,2.77
2022-10-05T23:40:58.510Z,2.80
2022-10-05T23:43:26.526Z,2.57
2022-10-05T23:45:56.342Z,2.83
2022-10-05T23:48:25.024Z,3.13
2022-10-05T23:50:53.543Z,3.43
2022-10-05T23:53:21.932Z,3.20
2022-10-05T23:55:51.007Z,3.03
2022-10-05T23:58:18.820Z,3.23
